sensor_id;sensor_type;location;lat;lon;timestamp;temperature;humidity
11934;DHT22;6026;48.784;9.198;2022-12-18T00:00:28;-7.90;99.90
11934;DHT22;6026;48.784;9.198;2022-12-18T00:02:55;-7.90;99.90
11934;DHT22;6026;48.784;9.198;2022-12-18T00:05:21;-8.00;99.90
11934;DHT22;6026;48.784;9.198;2022-12-18T00:07:46;-8.00;99.90
11934;DHT22;6026;48.784;9.198;2022-12-18T00:10:12;-8.00;99.90
11934;DHT22;6026;48.784;9.198;2022-12-18T00:12:37;-8.00;99.90
11934;DHT22;6026;48.784;9.198;2022-12-18T00:15:03;-8.00;99.90
11934;DHT22;6026;48.784;9.198;2022-12-18T00:17:29;-8.00;99.90
11934;DHT22;6026;48.784;9.198;2022-12-18T00:19:54;-8.00;99.90
11934;DHT22;6026;48.784;9.198;2022-12-18T00:22:20;-8.00;99.90
11934;DHT22;6026;48.784;9.198;2022-12-18T00:24:45;-8.00;99.90
11934;DHT22;6026;48.784;9.198;2022-12-18T00:27:11;-8.00;99.90
11934;DHT22;6026;48.784;9.198;2022-12-18T00:29:36;-8.00;99.90
11934;DHT22;6026;48.784;9.198;2022-12-18T00:32:05;-8.00;99.90
11934;DHT22;6026;48.784;9.198;2022-12-18T00:34:30;-8.00;99.90
11934;DHT22;6026;48.784;9.198;2022-12-18T00:36:56;-8.00;99.90
11934;DHT22;6026;48.784;9.198;2022-12-18T00:39:21;-8.00;99.90
11934;DHT22;6026;48.784;9.198;2022-12-18T00:41:47;-8.00;99.90
11934;DHT22;6026;48.784;9.198;2022-12-18T00:44:31;-8.10;99.90
11934;DHT22;6026;48.784;9.198;2022-12-18T00:46:56;-8.10;99.90
11934;DHT22;6026;48.784;9.198;2022-12-18T00:49:22;-8.10;99.90
11934;DHT22;6026;48.784;9.198;2022-12-18T00:51:48;-8.10;99.90
11934;DHT22;6026;48.784;9.198;2022-12-18T00:54:14;-8.10;99.90
11934;DHT22;6026;48.784;9.198;2022-12-18T00:56:40;-8.10;99.90
11934;DHT22;6026;48.784;9.198;2022-12-18T00:59:06;-8.10;99.90
11934;DHT22;6026;48.784;9.198;2022-12-18T01:01:31;-8.20;99.90
11934;DHT22;6026;48.784;9.198;2022-12-18T01:03:59;-8.20;99.90
11934;DHT22;6026;48.784;9.198;2022-12-18T01:06:24;-8.20;99.90
11934;DHT22;6026;48.784;9.198;2022-12-18T01:08:50;-8.20;99.90
11934;DHT22;6026;48.784;9.198;2022-12-18T01:11:18;-8.20;99.90
11934;DHT22;6026;48.784;9.198;2022-12-18T01:13:44;-8.20;99.90
11934;DHT22;6026;48.784;9.198;2022-12-18T01:16:14;-8.20;99.90
11934;DHT22;6026;48.784;9.198;2022-12-18T01:18:41;-8.30;99.90
11934;DHT22;6026;48.784;9.198;2022-12-18T01:21:08;-8.30;99.90
11934;DHT22;6026;48.784;9.198;2022-12-18T01:23:34;-8.30;99.90
11934;DHT22;6026;48.784;9.198;2022-12-18T01:26:08;-8.30;99.90
11934;DHT22;6026;48.784;9.198;2022-12-18T01:28:34;-8.20;99.90
11934;DHT22;6026;48.784;9.198;2022-12-18T01:33:39;-8.30;99.90
11934;DHT22;6026;48.784;9.198;2022-12-18T01:36:04;-8.30;99.90
11934;DHT22;6026;48.784;9.198;2022-12-18T01:38:30;-8.30;99.90
11934;DHT22;6026;48.784;9.198;2022-12-18T01:41:01;-8.20;99.90
11934;DHT22;6026;48.784;9.198;2022-12-18T01:43:50;-8.20;99.90
11934;DHT22;6026;48.784;9.198;2022-12-18T01:46:18;-8.20;99.90
11934;DHT22;6026;48.784;9.198;2022-12-18T01:48:46;-8.20;99.90
11934;DHT22;6026;48.784;9.198;2022-12-18T01:51:13;-8.20;99.90
11934;DHT22;6026;48.784;9.198;2022-12-18T01:53:40;-8.20;99.90
11934;DHT22;6026;48.784;9.198;2022-12-18T01:56:06;-8.30;99.90
11934;DHT22;6026;48.784;9.198;2022-12-18T01:58:58;-8.30;99.90
11934;DHT22;6026;48.784;9.198;2022-12-18T02:01:25;-8.20;99.90
11934;DHT22;6026;48.784;9.198;2022-12-18T02:03:51;-8.30;99.90
11934;DHT22;6026;48.784;9.198;2022-12-18T02:06:29;-8.20;99.90
11934;DHT22;6026;48.784;9.198;2022-12-18T02:09:14;-8.20;99.90
11934;DHT22;6026;48.784;9.198;2022-12-18T02:11:53;-8.30;99.90
11934;DHT22;6026;48.784;9.198;2022-12-18T02:14:38;-8.20;99.90
11934;DHT22;6026;48.784;9.198;2022-12-18T02:17:18;-8.20;99.90
11934;DHT22;6026;48.784;9.198;2022-12-18T02:28:20;-8.20;99.90
11934;DHT22;6026;48.784;9.198;2022-12-18T02:30:49;-8.20;99.90
11934;DHT22;6026;48.784;9.198;2022-12-18T02:33:17;-8.20;99.90
11934;DHT22;6026;48.784;9.198;2022-12-18T02:35:45;-8.10;99.90
11934;DHT22;6026;48.784;9.198;2022-12-18T02:38:12;-8.10;99.90
11934;DHT22;6026;48.784;9.198;2022-12-18T02:40:38;-8.10;99.90
11934;DHT22;6026;48.784;9.198;2022-12-18T02:43:13;-8.10;99.90
11934;DHT22;6026;48.784;9.198;2022-12-18T02:45:48;-8.10;99.90
11934;DHT22;6026;48.784;9.198;2022-12-18T02:48:14;-8.10;99.90
11934;DHT22;6026;48.784;9.198;2022-12-18T02:51:44;-8.10;99.90
11934;DHT22;6026;48.784;9.198;2022-12-18T02:54:00;-8.10;99.90
11934;DHT22;6026;48.784;9.198;2022-12-18T02:56:51;-8.10;99.90
11934;DHT22;6026;48.784;9.198;2022-12-18T02:59:30;-8.10;99.90
11934;DHT22;6026;48.784;9.198;2022-12-18T03:04:31;-8.00;99.90
11934;DHT22;6026;48.784;9.198;2022-12-18T03:07:02;-8.10;99.90
11934;DHT22;6026;48.784;9.198;2022-12-18T03:09:32;-8.10;99.90
11934;DHT22;6026;48.784;9.198;2022-12-18T03:12:12;-8.10;99.90
11934;DHT22;6026;48.784;9.198;2022-12-18T03:17:23;-8.10;99.90
11934;DHT22;6026;48.784;9.198;2022-12-18T03:19:51;-8.10;99.90
11934;DHT22;6026;48.784;9.198;2022-12-18T03:22:19;-8.10;99.90
11934;DHT22;6026;48.784;9.198;2022-12-18T03:24:47;-8.10;99.90
11934;DHT22;6026;48.784;9.198;2022-12-18T03:27:17;-8.20;99.90
11934;DHT22;6026;48.784;9.198;2022-12-18T03:29:50;-8.10;99.90
11934;DHT22;6026;48.784;9.198;2022-12-18T03:32:24;-8.10;99.90
11934;DHT22;6026;48.784;9.198;2022-12-18T03:34:53;-8.10;99.90
11934;DHT22;6026;48.784;9.198;2022-12-18T03:37:20;-8.10;99.90
11934;DHT22;6026;48.784;9.198;2022-12-18T03:39:46;-8.10;99.90
11934;DHT22;6026;48.784;9.198;2022-12-18T03:42:20;-8.10;99.90
11934;DHT22;6026;48.784;9.198;2022-12-18T03:50:13;-8.20;99.90
11934;DHT22;6026;48.784;9.198;2022-12-18T03:52:57;-8.10;99.90
11934;DHT22;6026;48.784;9.198;2022-12-18T03:55:25;-8.20;99.90
11934;DHT22;6026;48.784;9.198;2022-12-18T03:57:54;-8.20;99.90
11934;DHT22;6026;48.784;9.198;2022-12-18T04:00:20;-8.20;99.90
11934;DHT22;6026;48.784;9.198;2022-12-18T04:02:54;-8.20;99.90
11934;DHT22;6026;48.784;9.198;2022-12-18T04:05:22;-8.10;99.90
11934;DHT22;6026;48.784;9.198;2022-12-18T04:07:50;-8.10;99.90
11934;DHT22;6026;48.784;9.198;2022-12-18T04:10:17;-8.10;99.90
11934;DHT22;6026;48.784;9.198;2022-12-18T04:12:43;-8.10;99.90
11934;DHT22;6026;48.784;9.198;2022-12-18T04:15:09;-8.10;99.90
11934;DHT22;6026;48.784;9.198;2022-12-18T04:17:35;-8.10;99.90
11934;DHT22;6026;48.784;9.198;2022-12-18T04:20:01;-8.10;99.90
11934;DHT22;6026;48.784;9.198;2022-12-18T04:22:27;-8.10;99.90
11934;DHT22;6026;48.784;9.198;2022-12-18T04:24:52;-8.10;99.90
11934;DHT22;6026;48.784;9.198;2022-12-18T04:27:18;-8.10;99.90
11934;DHT22;6026;48.784;9.198;2022-12-18T04:29:44;-8.20;99.90
11934;DHT22;6026;48.784;9.198;2022-12-18T04:32:09;-8.20;99.90
11934;DHT22;6026;48.784;9.198;2022-12-18T04:34:35;-8.10;99.90
11934;DHT22;6026;48.784;9.198;2022-12-18T04:37:00;-8.20;99.90
11934;DHT22;6026;48.784;9.198;2022-12-18T04:39:26;-8.20;99.90
11934;DHT22;6026;48.784;9.198;2022-12-18T04:41:51;-8.20;99.90
11934;DHT22;6026;48.784;9.198;2022-12-18T04:44:17;-8.20;99.90
11934;DHT22;6026;48.784;9.198;2022-12-18T04:46:43;-8.20;99.90
11934;DHT22;6026;48.784;9.198;2022-12-18T04:49:09;-8.20;99.90
11934;DHT22;6026;48.784;9.198;2022-12-18T04:51:36;-8.10;99.90
11934;DHT22;6026;48.784;9.198;2022-12-18T04:54:01;-8.20;99.90
11934;DHT22;6026;48.784;9.198;2022-12-18T04:56:27;-8.20;99.90
11934;DHT22;6026;48.784;9.198;2022-12-18T04:58:53;-8.20;99.90
11934;DHT22;6026;48.784;9.198;2022-12-18T05:01:18;-8.20;99.90
11934;DHT22;6026;48.784;9.198;2022-12-18T05:03:44;-8.20;99.90
11934;DHT22;6026;48.784;9.198;2022-12-18T05:06:10;-8.10;99.90
11934;DHT22;6026;48.784;9.198;2022-12-18T05:08:36;-8.10;99.90
11934;DHT22;6026;48.784;9.198;2022-12-18T05:11:09;-8.20;99.90
11934;DHT22;6026;48.784;9.198;2022-12-18T05:13:36;-8.10;99.90
11934;DHT22;6026;48.784;9.198;2022-12-18T05:16:03;-8.10;99.90
11934;DHT22;6026;48.784;9.198;2022-12-18T05:18:29;-8.10;99.90
11934;DHT22;6026;48.784;9.198;2022-12-18T05:20:55;-8.10;99.90
11934;DHT22;6026;48.784;9.198;2022-12-18T05:23:23;-8.10;99.90
11934;DHT22;6026;48.784;9.198;2022-12-18T05:25:57;-8.10;99.90
11934;DHT22;6026;48.784;9.198;2022-12-18T05:28:24;-8.20;99.90
11934;DHT22;6026;48.784;9.198;2022-12-18T05:30:57;-8.20;99.90
11934;DHT22;6026;48.784;9.198;2022-12-18T05:33:24;-8.30;99.90
11934;DHT22;6026;48.784;9.198;2022-12-18T05:35:55;-8.30;99.90
11934;DHT22;6026;48.784;9.198;2022-12-18T05:38:22;-8.30;99.90
11934;DHT22;6026;48.784;9.198;2022-12-18T05:40:48;-8.30;99.90
11934;DHT22;6026;48.784;9.198;2022-12-18T05:43:15;-8.30;99.90
11934;DHT22;6026;48.784;9.198;2022-12-18T05:45:41;-8.40;99.90
11934;DHT22;6026;48.784;9.198;2022-12-18T05:48:07;-8.40;99.90
11934;DHT22;6026;48.784;9.198;2022-12-18T05:50:35;-8.40;99.90
11934;DHT22;6026;48.784;9.198;2022-12-18T05:53:01;-8.40;99.90
11934;DHT22;6026;48.784;9.198;2022-12-18T05:55:27;-8.50;99.90
11934;DHT22;6026;48.784;9.198;2022-12-18T05:57:52;-8.60;99.90
11934;DHT22;6026;48.784;9.198;2022-12-18T06:00:18;-8.60;99.90
11934;DHT22;6026;48.784;9.198;2022-12-18T06:02:47;-8.60;99.90
11934;DHT22;6026;48.784;9.198;2022-12-18T06:05:12;-8.60;99.90
11934;DHT22;6026;48.784;9.198;2022-12-18T06:07:38;-8.60;99.90
11934;DHT22;6026;48.784;9.198;2022-12-18T06:10:04;-8.60;99.90
11934;DHT22;6026;48.784;9.198;2022-12-18T06:12:29;-8.60;99.90
11934;DHT22;6026;48.784;9.198;2022-12-18T06:14:55;-8.60;99.90
11934;DHT22;6026;48.784;9.198;2022-12-18T06:17:21;-8.70;99.90
11934;DHT22;6026;48.784;9.198;2022-12-18T06:19:47;-8.80;99.90
11934;DHT22;6026;48.784;9.198;2022-12-18T06:22:12;-8.80;99.90
11934;DHT22;6026;48.784;9.198;2022-12-18T06:24:38;-8.70;99.90
11934;DHT22;6026;48.784;9.198;2022-12-18T06:27:03;-8.80;99.90
11934;DHT22;6026;48.784;9.198;2022-12-18T06:29:29;-8.90;99.90
11934;DHT22;6026;48.784;9.198;2022-12-18T06:31:54;-8.90;99.90
11934;DHT22;6026;48.784;9.198;2022-12-18T06:34:20;-8.90;99.90
11934;DHT22;6026;48.784;9.198;2022-12-18T06:36:45;-8.90;99.90
11934;DHT22;6026;48.784;9.198;2022-12-18T06:39:11;-9.00;99.90
11934;DHT22;6026;48.784;9.198;2022-12-18T06:41:36;-8.90;99.90
11934;DHT22;6026;48.784;9.198;2022-12-18T06:44:02;-9.00;99.90
11934;DHT22;6026;48.784;9.198;2022-12-18T06:46:28;-9.00;99.90
11934;DHT22;6026;48.784;9.198;2022-12-18T06:48:53;-9.00;99.90
11934;DHT22;6026;48.784;9.198;2022-12-18T06:51:20;-9.00;99.90
11934;DHT22;6026;48.784;9.198;2022-12-18T06:53:46;-9.00;99.90
11934;DHT22;6026;48.784;9.198;2022-12-18T06:56:12;-9.00;99.90
11934;DHT22;6026;48.784;9.198;2022-12-18T06:58:38;-9.00;99.90
11934;DHT22;6026;48.784;9.198;2022-12-18T07:01:06;-9.10;99.90
11934;DHT22;6026;48.784;9.198;2022-12-18T07:03:32;-9.10;99.90
11934;DHT22;6026;48.784;9.198;2022-12-18T07:05:57;-9.10;99.90
11934;DHT22;6026;48.784;9.198;2022-12-18T07:08:23;-9.10;99.90
11934;DHT22;6026;48.784;9.198;2022-12-18T07:10:49;-9.10;99.90
11934;DHT22;6026;48.784;9.198;2022-12-18T07:13:15;-9.10;99.90
11934;DHT22;6026;48.784;9.198;2022-12-18T07:15:41;-9.10;99.90
11934;DHT22;6026;48.784;9.198;2022-12-18T07:18:07;-9.10;99.90
11934;DHT22;6026;48.784;9.198;2022-12-18T07:20:32;-9.10;99.90
11934;DHT22;6026;48.784;9.198;2022-12-18T07:22:58;-9.10;99.90
11934;DHT22;6026;48.784;9.198;2022-12-18T07:25:23;-9.10;99.90
11934;DHT22;6026;48.784;9.198;2022-12-18T07:27:49;-9.00;99.90
11934;DHT22;6026;48.784;9.198;2022-12-18T07:30:15;-9.00;99.90
11934;DHT22;6026;48.784;9.198;2022-12-18T07:32:40;-9.00;99.90
11934;DHT22;6026;48.784;9.198;2022-12-18T07:35:06;-9.00;99.90
11934;DHT22;6026;48.784;9.198;2022-12-18T07:37:32;-9.00;99.90
11934;DHT22;6026;48.784;9.198;2022-12-18T07:39:57;-9.00;99.90
11934;DHT22;6026;48.784;9.198;2022-12-18T07:42:23;-9.00;99.90
11934;DHT22;6026;48.784;9.198;2022-12-18T07:44:58;-9.00;99.90
11934;DHT22;6026;48.784;9.198;2022-12-18T07:47:23;-8.90;99.90
11934;DHT22;6026;48.784;9.198;2022-12-18T07:49:49;-9.00;99.90
11934;DHT22;6026;48.784;9.198;2022-12-18T07:52:15;-9.00;99.90
11934;DHT22;6026;48.784;9.198;2022-12-18T07:54:40;-8.90;99.90
11934;DHT22;6026;48.784;9.198;2022-12-18T07:57:07;-9.00;99.90
11934;DHT22;6026;48.784;9.198;2022-12-18T07:59:32;-8.90;99.90
11934;DHT22;6026;48.784;9.198;2022-12-18T08:01:58;-8.90;99.90
11934;DHT22;6026;48.784;9.198;2022-12-18T08:04:24;-8.90;99.90
11934;DHT22;6026;48.784;9.198;2022-12-18T08:06:50;-8.80;99.90
11934;DHT22;6026;48.784;9.198;2022-12-18T08:09:15;-8.80;99.90
11934;DHT22;6026;48.784;9.198;2022-12-18T08:11:42;-8.80;99.90
11934;DHT22;6026;48.784;9.198;2022-12-18T08:14:07;-8.70;99.90
11934;DHT22;6026;48.784;9.198;2022-12-18T08:16:33;-8.70;99.90
11934;DHT22;6026;48.784;9.198;2022-12-18T08:19:00;-8.70;99.90
11934;DHT22;6026;48.784;9.198;2022-12-18T08:21:28;-8.70;99.90
11934;DHT22;6026;48.784;9.198;2022-12-18T08:23:55;-8.60;99.90
11934;DHT22;6026;48.784;9.198;2022-12-18T08:26:22;-8.60;99.90
11934;DHT22;6026;48.784;9.198;2022-12-18T08:28:48;-8.60;99.90
11934;DHT22;6026;48.784;9.198;2022-12-18T08:31:14;-8.50;99.90
11934;DHT22;6026;48.784;9.198;2022-12-18T08:33:40;-8.40;99.90
11934;DHT22;6026;48.784;9.198;2022-12-18T08:36:06;-8.40;99.90
11934;DHT22;6026;48.784;9.198;2022-12-18T08:38:33;-8.30;99.90
11934;DHT22;6026;48.784;9.198;2022-12-18T08:41:03;-8.30;99.90
11934;DHT22;6026;48.784;9.198;2022-12-18T08:43:29;-8.30;99.90
11934;DHT22;6026;48.784;9.198;2022-12-18T08:46:17;-8.20;99.90
11934;DHT22;6026;48.784;9.198;2022-12-18T08:48:43;-8.10;99.90
11934;DHT22;6026;48.784;9.198;2022-12-18T08:51:09;-8.00;99.90
11934;DHT22;6026;48.784;9.198;2022-12-18T08:53:36;-8.00;99.90
11934;DHT22;6026;48.784;9.198;2022-12-18T08:56:02;-8.00;99.90
11934;DHT22;6026;48.784;9.198;2022-12-18T08:58:28;-7.90;99.90
11934;DHT22;6026;48.784;9.198;2022-12-18T09:00:54;-7.80;99.90
11934;DHT22;6026;48.784;9.198;2022-12-18T09:03:20;-7.80;99.90
11934;DHT22;6026;48.784;9.198;2022-12-18T09:05:47;-7.60;99.90
11934;DHT22;6026;48.784;9.198;2022-12-18T09:08:13;-7.40;99.90
11934;DHT22;6026;48.784;9.198;2022-12-18T09:10:43;-7.00;99.90
11934;DHT22;6026;48.784;9.198;2022-12-18T09:13:11;-6.40;99.90
11934;DHT22;6026;48.784;9.198;2022-12-18T09:15:48;-5.70;99.90
11934;DHT22;6026;48.784;9.198;2022-12-18T09:18:16;-4.90;99.90
11934;DHT22;6026;48.784;9.198;2022-12-18T09:20:42;-4.30;99.90
11934;DHT22;6026;48.784;9.198;2022-12-18T09:23:08;-3.60;99.90
11934;DHT22;6026;48.784;9.198;2022-12-18T09:25:35;-3.10;99.90
11934;DHT22;6026;48.784;9.198;2022-12-18T09:28:03;-2.70;99.90
11934;DHT22;6026;48.784;9.198;2022-12-18T09:30:29;-2.50;99.90
11934;DHT22;6026;48.784;9.198;2022-12-18T09:32:55;-2.30;99.90
11934;DHT22;6026;48.784;9.198;2022-12-18T09:35:21;-2.20;99.90
11934;DHT22;6026;48.784;9.198;2022-12-18T09:37:47;-2.00;99.90
11934;DHT22;6026;48.784;9.198;2022-12-18T09:40:22;-1.80;99.90
11934;DHT22;6026;48.784;9.198;2022-12-18T09:42:55;-1.70;99.90
11934;DHT22;6026;48.784;9.198;2022-12-18T09:45:23;-1.80;99.90
11934;DHT22;6026;48.784;9.198;2022-12-18T09:47:49;-1.60;99.90
11934;DHT22;6026;48.784;9.198;2022-12-18T09:50:29;-1.60;99.90
11934;DHT22;6026;48.784;9.198;2022-12-18T09:53:02;-1.70;99.90
11934;DHT22;6026;48.784;9.198;2022-12-18T09:55:34;-1.90;99.90
11934;DHT22;6026;48.784;9.198;2022-12-18T09:58:28;-2.00;99.90
11934;DHT22;6026;48.784;9.198;2022-12-18T10:00:56;-2.30;99.90
11934;DHT22;6026;48.784;9.198;2022-12-18T10:03:22;-2.70;99.90
11934;DHT22;6026;48.784;9.198;2022-12-18T10:13:52;-3.40;99.90
11934;DHT22;6026;48.784;9.198;2022-12-18T10:16:51;-3.40;99.90
11934;DHT22;6026;48.784;9.198;2022-12-18T10:24:24;-3.30;99.90
11934;DHT22;6026;48.784;9.198;2022-12-18T10:26:53;-3.30;99.90
11934;DHT22;6026;48.784;9.198;2022-12-18T10:29:22;-3.40;99.90
11934;DHT22;6026;48.784;9.198;2022-12-18T10:31:48;-3.40;99.90
11934;DHT22;6026;48.784;9.198;2022-12-18T10:34:16;-3.30;99.90
11934;DHT22;6026;48.784;9.198;2022-12-18T10:36:42;-3.30;99.90
11934;DHT22;6026;48.784;9.198;2022-12-18T10:41:41;-3.20;99.90
11934;DHT22;6026;48.784;9.198;2022-12-18T10:44:21;-2.80;99.90
11934;DHT22;6026;48.784;9.198;2022-12-18T10:46:49;-2.30;99.90
11934;DHT22;6026;48.784;9.198;2022-12-18T10:49:22;-1.60;99.90
11934;DHT22;6026;48.784;9.198;2022-12-18T10:51:49;-1.10;99.90
11934;DHT22;6026;48.784;9.198;2022-12-18T10:54:24;-0.80;99.90
11934;DHT22;6026;48.784;9.198;2022-12-18T10:56:50;-0.40;99.90
11934;DHT22;6026;48.784;9.198;2022-12-18T10:59:17;0.00;99.90
11934;DHT22;6026;48.784;9.198;2022-12-18T11:04:21;0.50;99.90
11934;DHT22;6026;48.784;9.198;2022-12-18T11:07:02;0.60;99.90
11934;DHT22;6026;48.784;9.198;2022-12-18T11:09:38;0.60;99.90
11934;DHT22;6026;48.784;9.198;2022-12-18T11:12:19;1.00;99.90
11934;DHT22;6026;48.784;9.198;2022-12-18T11:14:46;1.30;99.90
11934;DHT22;6026;48.784;9.198;2022-12-18T11:17:33;1.30;99.90
11934;DHT22;6026;48.784;9.198;2022-12-18T11:20:33;1.60;99.90
11934;DHT22;6026;48.784;9.198;2022-12-18T11:23:20;2.00;99.90
11934;DHT22;6026;48.784;9.198;2022-12-18T11:25:57;2.40;99.90
11934;DHT22;6026;48.784;9.198;2022-12-18T11:28:35;2.50;99.90
11934;DHT22;6026;48.784;9.198;2022-12-18T11:31:27;2.70;99.90
11934;DHT22;6026;48.784;9.198;2022-12-18T11:34:12;2.80;99.90
11934;DHT22;6026;48.784;9.198;2022-12-18T11:36:50;3.00;99.90
11934;DHT22;6026;48.784;9.198;2022-12-18T11:39:38;3.20;99.90
11934;DHT22;6026;48.784;9.198;2022-12-18T11:42:15;3.70;99.90
11934;DHT22;6026;48.784;9.198;2022-12-18T11:44:54;3.80;99.90
11934;DHT22;6026;48.784;9.198;2022-12-18T11:50:00;3.60;99.90
11934;DHT22;6026;48.784;9.198;2022-12-18T11:52:39;3.60;99.90
11934;DHT22;6026;48.784;9.198;2022-12-18T11:55:24;4.00;99.90
11934;DHT22;6026;48.784;9.198;2022-12-18T11:58:33;3.90;99.90
11934;DHT22;6026;48.784;9.198;2022-12-18T12:01:12;3.60;99.90
11934;DHT22;6026;48.784;9.198;2022-12-18T12:16:50;3.10;99.90
11934;DHT22;6026;48.784;9.198;2022-12-18T12:22:42;2.80;99.90
11934;DHT22;6026;48.784;9.198;2022-12-18T12:25:46;2.50;99.90
11934;DHT22;6026;48.784;9.198;2022-12-18T12:31:02;1.70;99.90
11934;DHT22;6026;48.784;9.198;2022-12-18T12:39:06;0.80;99.90
11934;DHT22;6026;48.784;9.198;2022-12-18T12:41:33;0.70;99.90
11934;DHT22;6026;48.784;9.198;2022-12-18T12:44:32;0.50;99.90
11934;DHT22;6026;48.784;9.198;2022-12-18T12:47:09;0.30;99.90
11934;DHT22;6026;48.784;9.198;2022-12-18T12:49:36;0.20;99.90
11934;DHT22;6026;48.784;9.198;2022-12-18T12:52:12;0.00;99.90
11934;DHT22;6026;48.784;9.198;2022-12-18T12:54:39;-0.10;99.90
11934;DHT22;6026;48.784;9.198;2022-12-18T13:00:05;-0.30;99.90
11934;DHT22;6026;48.784;9.198;2022-12-18T13:05:43;-0.60;99.90
11934;DHT22;6026;48.784;9.198;2022-12-18T13:08:25;-0.70;99.90
11934;DHT22;6026;48.784;9.198;2022-12-18T13:10:54;-0.60;99.90
11934;DHT22;6026;48.784;9.198;2022-12-18T13:14:12;-0.60;99.90
11934;DHT22;6026;48.784;9.198;2022-12-18T13:16:45;-0.70;99.90
11934;DHT22;6026;48.784;9.198;2022-12-18T13:19:22;-0.60;99.90
11934;DHT22;6026;48.784;9.198;2022-12-18T13:21:54;-0.60;99.90
11934;DHT22;6026;48.784;9.198;2022-12-18T13:24:26;-0.60;99.90
11934;DHT22;6026;48.784;9.198;2022-12-18T13:26:53;-0.60;99.90
11934;DHT22;6026;48.784;9.198;2022-12-18T13:29:43;-0.60;99.90
11934;DHT22;6026;48.784;9.198;2022-12-18T13:32:24;-0.50;99.90
11934;DHT22;6026;48.784;9.198;2022-12-18T13:35:37;-0.60;99.90
11934;DHT22;6026;48.784;9.198;2022-12-18T13:37:55;-0.60;99.90
11934;DHT22;6026;48.784;9.198;2022-12-18T13:51:19;-0.60;99.90
11934;DHT22;6026;48.784;9.198;2022-12-18T13:54:00;-0.50;99.90
11934;DHT22;6026;48.784;9.198;2022-12-18T13:56:30;-0.60;99.90
11934;DHT22;6026;48.784;9.198;2022-12-18T14:01:36;-0.60;99.90
11934;DHT22;6026;48.784;9.198;2022-12-18T14:04:10;-0.60;99.90
11934;DHT22;6026;48.784;9.198;2022-12-18T14:06:36;-0.60;99.90
11934;DHT22;6026;48.784;9.198;2022-12-18T14:09:02;-0.60;99.90
11934;DHT22;6026;48.784;9.198;2022-12-18T14:11:28;-0.70;99.90
11934;DHT22;6026;48.784;9.198;2022-12-18T14:13:54;-0.70;99.90
11934;DHT22;6026;48.784;9.198;2022-12-18T14:16:20;-0.70;99.90
11934;DHT22;6026;48.784;9.198;2022-12-18T14:18:56;-0.70;99.90
11934;DHT22;6026;48.784;9.198;2022-12-18T14:21:25;-0.70;99.90
11934;DHT22;6026;48.784;9.198;2022-12-18T14:24:25;-0.70;99.90
11934;DHT22;6026;48.784;9.198;2022-12-18T14:26:50;-0.80;99.90
11934;DHT22;6026;48.784;9.198;2022-12-18T14:29:27;-0.90;99.90
11934;DHT22;6026;48.784;9.198;2022-12-18T14:32:16;-0.90;99.90
11934;DHT22;6026;48.784;9.198;2022-12-18T14:34:49;-0.90;99.90
11934;DHT22;6026;48.784;9.198;2022-12-18T14:37:20;-1.00;99.90
11934;DHT22;6026;48.784;9.198;2022-12-18T14:39:56;-1.00;99.90
11934;DHT22;6026;48.784;9.198;2022-12-18T14:42:23;-1.10;99.90
11934;DHT22;6026;48.784;9.198;2022-12-18T14:47:58;-1.20;99.90
11934;DHT22;6026;48.784;9.198;2022-12-18T14:50:24;-1.20;99.90
11934;DHT22;6026;48.784;9.198;2022-12-18T14:52:50;-1.20;99.90
11934;DHT22;6026;48.784;9.198;2022-12-18T14:55:21;-1.30;99.90
11934;DHT22;6026;48.784;9.198;2022-12-18T14:57:50;-1.40;99.90
11934;DHT22;6026;48.784;9.198;2022-12-18T15:00:22;-1.50;99.90
11934;DHT22;6026;48.784;9.198;2022-12-18T15:02:54;-1.50;99.90
11934;DHT22;6026;48.784;9.198;2022-12-18T15:05:29;-1.70;99.90
11934;DHT22;6026;48.784;9.198;2022-12-18T15:07:57;-1.70;99.90
11934;DHT22;6026;48.784;9.198;2022-12-18T15:10:29;-1.80;99.90
11934;DHT22;6026;48.784;9.198;2022-12-18T15:18:05;-2.10;99.90
11934;DHT22;6026;48.784;9.198;2022-12-18T15:20:50;-2.20;99.90
11934;DHT22;6026;48.784;9.198;2022-12-18T15:23:36;-2.20;99.90
11934;DHT22;6026;48.784;9.198;2022-12-18T15:26:05;-2.30;99.90
11934;DHT22;6026;48.784;9.198;2022-12-18T15:28:49;-2.30;99.90
11934;DHT22;6026;48.784;9.198;2022-12-18T15:33:59;-2.50;99.90
11934;DHT22;6026;48.784;9.198;2022-12-18T15:36:29;-2.60;99.90
11934;DHT22;6026;48.784;9.198;2022-12-18T15:38:56;-2.60;99.90
11934;DHT22;6026;48.784;9.198;2022-12-18T15:41:23;-2.70;99.90
11934;DHT22;6026;48.784;9.198;2022-12-18T15:43:50;-2.80;99.90
11934;DHT22;6026;48.784;9.198;2022-12-18T15:46:20;-2.80;99.90
11934;DHT22;6026;48.784;9.198;2022-12-18T15:48:56;-2.90;99.90
11934;DHT22;6026;48.784;9.198;2022-12-18T15:51:34;-3.00;99.90
11934;DHT22;6026;48.784;9.198;2022-12-18T15:54:05;-3.10;99.90
11934;DHT22;6026;48.784;9.198;2022-12-18T15:56:34;-3.10;99.90
11934;DHT22;6026;48.784;9.198;2022-12-18T15:59:20;-3.10;99.90
11934;DHT22;6026;48.784;9.198;2022-12-18T16:01:47;-3.10;99.90
11934;DHT22;6026;48.784;9.198;2022-12-18T16:04:16;-3.20;99.90
11934;DHT22;6026;48.784;9.198;2022-12-18T16:06:42;-3.20;99.90
11934;DHT22;6026;48.784;9.198;2022-12-18T16:09:07;-3.20;99.90
11934;DHT22;6026;48.784;9.198;2022-12-18T16:11:35;-3.20;99.90
11934;DHT22;6026;48.784;9.198;2022-12-18T16:14:25;-3.30;99.90
11934;DHT22;6026;48.784;9.198;2022-12-18T16:16:57;-3.30;99.90
11934;DHT22;6026;48.784;9.198;2022-12-18T16:19:23;-3.30;99.90
11934;DHT22;6026;48.784;9.198;2022-12-18T16:21:50;-3.40;99.90
11934;DHT22;6026;48.784;9.198;2022-12-18T16:26:43;-3.50;99.90
11934;DHT22;6026;48.784;9.198;2022-12-18T16:29:09;-3.50;99.90
11934;DHT22;6026;48.784;9.198;2022-12-18T16:31:35;-3.50;99.90
11934;DHT22;6026;48.784;9.198;2022-12-18T16:34:33;-3.50;99.90
11934;DHT22;6026;48.784;9.198;2022-12-18T16:37:05;-3.50;99.90
11934;DHT22;6026;48.784;9.198;2022-12-18T16:39:32;-3.50;99.90
11934;DHT22;6026;48.784;9.198;2022-12-18T16:41:59;-3.50;99.90
11934;DHT22;6026;48.784;9.198;2022-12-18T16:44:25;-3.60;99.90
11934;DHT22;6026;48.784;9.198;2022-12-18T16:46:51;-3.50;99.90
11934;DHT22;6026;48.784;9.198;2022-12-18T16:49:18;-3.50;99.90
11934;DHT22;6026;48.784;9.198;2022-12-18T16:51:45;-3.60;99.90
11934;DHT22;6026;48.784;9.198;2022-12-18T16:54:12;-3.60;99.90
11934;DHT22;6026;48.784;9.198;2022-12-18T16:56:38;-3.60;99.90
11934;DHT22;6026;48.784;9.198;2022-12-18T16:59:03;-3.50;99.90
11934;DHT22;6026;48.784;9.198;2022-12-18T17:01:30;-3.50;99.90
11934;DHT22;6026;48.784;9.198;2022-12-18T17:03:58;-3.60;99.90
11934;DHT22;6026;48.784;9.198;2022-12-18T17:06:25;-3.60;99.90
11934;DHT22;6026;48.784;9.198;2022-12-18T17:08:56;-3.60;99.90
11934;DHT22;6026;48.784;9.198;2022-12-18T17:11:23;-3.60;99.90
11934;DHT22;6026;48.784;9.198;2022-12-18T17:13:49;-3.50;99.90
11934;DHT22;6026;48.784;9.198;2022-12-18T17:16:14;-3.50;99.90
11934;DHT22;6026;48.784;9.198;2022-12-18T17:18:41;-3.50;99.90
11934;DHT22;6026;48.784;9.198;2022-12-18T17:21:09;-3.60;99.90
11934;DHT22;6026;48.784;9.198;2022-12-18T17:23:35;-3.60;99.90
11934;DHT22;6026;48.784;9.198;2022-12-18T17:26:02;-3.50;99.90
11934;DHT22;6026;48.784;9.198;2022-12-18T17:28:29;-3.50;99.90
11934;DHT22;6026;48.784;9.198;2022-12-18T17:30:55;-3.50;99.90
11934;DHT22;6026;48.784;9.198;2022-12-18T17:33:21;-3.50;99.90
11934;DHT22;6026;48.784;9.198;2022-12-18T17:35:47;-3.50;99.90
11934;DHT22;6026;48.784;9.198;2022-12-18T17:38:13;-3.50;99.90
11934;DHT22;6026;48.784;9.198;2022-12-18T17:40:39;-3.50;99.90
11934;DHT22;6026;48.784;9.198;2022-12-18T17:43:06;-3.50;99.90
11934;DHT22;6026;48.784;9.198;2022-12-18T17:45:34;-3.50;99.90